createdAt,value
2018-11-10T00:00:30.106Z,3.30
2018-11-10T00:01:33.528Z,4.40
2018-11-10T00:02:36.977Z,3.17
2018-11-10T00:03:40.488Z,4.50
2018-11-10T00:04:43.948Z,2.37
2018-11-10T00:05:47.336Z,5.63
2018-11-10T00:06:50.847Z,2.50
2018-11-10T00:07:54.389Z,2.70
2018-11-10T00:08:58.466Z,3.43
2018-11-10T00:10:01.896Z,2.33
2018-11-10T00:11:05.529Z,2.83
2018-11-10T00:12:08.943Z,3.13
2018-11-10T00:13:12.407Z,2.93
2018-11-10T00:14:15.901Z,3.90
2018-11-10T00:15:19.370Z,4.23
2018-11-10T00:16:22.825Z,2.90
2018-11-10T00:17:26.230Z,3.20
2018-11-10T00:18:29.619Z,3.80
2018-11-10T00:19:33.042Z,3.77
2018-11-10T00:20:36.450Z,4.97
2018-11-10T00:21:39.934Z,4.07
2018-11-10T00:22:43.599Z,2.70
2018-11-10T00:23:46.984Z,2.57
2018-11-10T00:24:50.473Z,3.80
2018-11-10T00:25:53.868Z,3.10
2018-11-10T00:26:57.264Z,2.93
2018-11-10T00:28:00.646Z,3.30
2018-11-10T00:29:04.109Z,2.87
2018-11-10T00:30:09.737Z,3.60
2018-11-10T00:31:13.172Z,3.73
2018-11-10T00:32:16.566Z,4.87
2018-11-10T00:33:20.017Z,4.03
2018-11-10T00:34:23.500Z,3.10
2018-11-10T00:35:26.935Z,3.00
2018-11-10T00:36:31.697Z,2.90
2018-11-10T00:37:38.144Z,3.07
2018-11-10T00:38:43.596Z,3.20
2018-11-10T00:39:47.040Z,3.20
2018-11-10T00:40:50.640Z,3.30
2018-11-10T00:41:54.082Z,2.40
2018-11-10T00:42:57.526Z,6.33
2018-11-10T00:44:00.941Z,3.37
2018-11-10T00:46:45.400Z,3.10
2018-11-10T00:47:48.900Z,3.40
2018-11-10T00:48:52.301Z,3.07
2018-11-10T00:49:55.771Z,3.13
2018-11-10T00:51:02.641Z,2.80
2018-11-10T00:52:06.183Z,3.40
2018-11-10T00:53:09.605Z,3.10
2018-11-10T00:54:13.069Z,3.10
2018-11-10T00:55:16.652Z,3.40
2018-11-10T00:56:20.392Z,3.23
2018-11-10T00:57:23.864Z,2.87
2018-11-10T00:58:27.305Z,2.57
2018-11-10T00:59:30.752Z,3.73
2018-11-10T01:00:34.138Z,2.93
2018-11-10T01:01:37.579Z,2.53
2018-11-10T01:02:41.730Z,2.77
2018-11-10T01:03:45.224Z,4.17
2018-11-10T01:04:48.671Z,2.60
2018-11-10T01:05:52.092Z,3.33
2018-11-10T01:06:55.498Z,3.87
2018-11-10T01:07:58.902Z,3.10
2018-11-10T01:09:02.349Z,3.00
2018-11-10T01:10:06.924Z,3.10
2018-11-10T01:11:10.293Z,2.30
2018-11-10T01:12:13.742Z,2.90
2018-11-10T01:13:17.181Z,2.40
2018-11-10T01:14:20.656Z,3.40
2018-11-10T01:15:24.054Z,4.47
2018-11-10T01:16:27.451Z,3.37
2018-11-10T01:17:30.848Z,2.70
2018-11-10T01:18:34.229Z,2.73
2018-11-10T01:19:37.599Z,2.60
2018-11-10T01:20:41.026Z,3.23
2018-11-10T01:21:44.460Z,4.97
2018-11-10T01:22:47.831Z,3.20
2018-11-10T01:23:51.255Z,3.03
2018-11-10T01:24:54.694Z,4.53
2018-11-10T01:25:58.116Z,2.30
2018-11-10T01:27:01.532Z,3.10
2018-11-10T01:28:05.029Z,3.17
2018-11-10T01:29:08.573Z,3.77
2018-11-10T01:30:14.240Z,3.10
2018-11-10T01:31:17.634Z,2.60
2018-11-10T01:32:21.025Z,2.90
2018-11-10T01:33:24.420Z,3.00
2018-11-10T01:34:27.823Z,2.93
2018-11-10T01:35:31.259Z,2.40
2018-11-10T01:36:34.648Z,2.30
2018-11-10T01:37:38.294Z,2.87
2018-11-10T01:38:41.709Z,2.63
2018-11-10T01:39:45.199Z,3.40
2018-11-10T01:40:48.597Z,2.70
2018-11-10T01:41:51.984Z,2.43
2018-11-10T01:42:55.505Z,3.13
2018-11-10T01:43:58.920Z,3.37
2018-11-10T01:45:02.403Z,4.37
2018-11-10T01:46:05.971Z,3.00
2018-11-10T01:47:09.489Z,2.93
2018-11-10T01:48:12.992Z,3.77
2018-11-10T01:49:16.516Z,2.30
2018-11-10T01:50:20.052Z,2.40
2018-11-10T01:51:23.432Z,2.53
2018-11-10T01:52:26.924Z,2.83
2018-11-10T01:53:30.355Z,2.93
2018-11-10T01:54:33.910Z,3.10
2018-11-10T01:55:37.462Z,3.37
2018-11-10T01:56:41.948Z,3.40
2018-11-10T01:57:45.366Z,2.60
2018-11-10T01:58:48.856Z,3.27
2018-11-10T01:59:52.236Z,3.37
2018-11-10T02:00:55.616Z,3.60
2018-11-10T02:01:58.990Z,2.90
2018-11-10T02:03:02.380Z,2.70
2018-11-10T02:04:06.219Z,2.83
2018-11-10T02:05:09.651Z,2.50
2018-11-10T02:06:13.112Z,2.40
2018-11-10T02:07:16.472Z,3.53
2018-11-10T02:08:19.881Z,3.10
2018-11-10T02:09:23.320Z,3.10
2018-11-10T02:10:26.732Z,3.03
2018-11-10T02:11:30.092Z,2.97
2018-11-10T02:12:33.701Z,2.60
2018-11-10T02:13:37.105Z,4.00
2018-11-10T02:14:40.599Z,3.70
2018-11-10T02:15:44.216Z,3.93
2018-11-10T02:16:47.645Z,2.10
2018-11-10T02:17:51.380Z,3.50
2018-11-10T02:18:54.811Z,2.87
2018-11-10T02:19:58.348Z,3.33
2018-11-10T02:21:01.856Z,2.63
2018-11-10T02:22:05.416Z,2.50
2018-11-10T02:23:08.912Z,2.70
2018-11-10T02:24:12.350Z,3.80
2018-11-10T02:25:15.862Z,2.50
2018-11-10T02:26:19.358Z,3.03
2018-11-10T02:27:23.793Z,2.73
2018-11-10T02:28:27.228Z,3.60
2018-11-10T02:29:30.735Z,2.40
2018-11-10T02:30:34.188Z,2.50
2018-11-10T02:31:37.686Z,3.63
2018-11-10T02:32:41.097Z,8.57
2018-11-10T02:33:44.486Z,31.60
2018-11-10T02:34:47.967Z,14.83
2018-11-10T02:35:51.373Z,15.30
2018-11-10T02:36:54.730Z,9.13
2018-11-10T02:37:58.165Z,13.93
2018-11-10T02:39:01.611Z,11.03
2018-11-10T02:40:05.853Z,9.40
2018-11-10T02:41:09.386Z,16.30
2018-11-10T02:42:12.825Z,16.20
2018-11-10T02:43:16.237Z,13.73
2018-11-10T02:44:19.684Z,15.40
2018-11-10T02:45:23.171Z,12.53
2018-11-10T02:46:26.577Z,10.97
2018-11-10T02:47:30.020Z,13.97
2018-11-10T02:48:33.425Z,10.33
2018-11-10T02:49:36.952Z,9.83
2018-11-10T02:50:40.360Z,14.77
2018-11-10T02:51:43.745Z,17.80
2018-11-10T02:52:47.191Z,15.13
2018-11-10T02:53:50.590Z,10.77
2018-11-10T02:54:53.980Z,9.60
2018-11-10T02:55:57.471Z,12.90
2018-11-10T02:57:00.873Z,16.30
2018-11-10T02:58:04.322Z,19.33
2018-11-10T02:59:07.729Z,20.70
2018-11-10T03:00:12.501Z,31.03
2018-11-10T03:01:15.870Z,12.80
2018-11-10T03:02:19.262Z,13.63
2018-11-10T03:03:22.678Z,14.40
2018-11-10T03:04:26.167Z,12.60
2018-11-10T03:05:29.588Z,22.03
2018-11-10T03:06:33.010Z,14.60
2018-11-10T03:07:37.356Z,14.27
2018-11-10T03:08:40.789Z,22.33
2018-11-10T03:09:44.210Z,14.33
2018-11-10T03:10:47.667Z,12.10
2018-11-10T03:11:51.109Z,9.87
2018-11-10T03:12:54.527Z,14.73
2018-11-10T03:13:57.943Z,12.07
2018-11-10T03:15:01.373Z,15.50
2018-11-10T03:16:05.246Z,11.67
2018-11-10T03:17:08.689Z,14.47
2018-11-10T03:18:12.104Z,12.03
2018-11-10T03:19:16.278Z,9.13
2018-11-10T03:20:19.668Z,10.10
2018-11-10T03:21:23.084Z,13.50
2018-11-10T03:22:26.522Z,10.70
2018-11-10T03:23:30.004Z,10.30
2018-11-10T03:24:33.614Z,10.90
2018-11-10T03:25:36.998Z,14.73
2018-11-10T03:26:40.402Z,13.73
2018-11-10T03:27:43.814Z,12.67
2018-11-10T03:28:47.226Z,14.87
2018-11-10T03:29:50.632Z,10.40
2018-11-10T03:30:54.012Z,16.50
2018-11-10T03:31:57.410Z,11.47
2018-11-10T03:33:00.824Z,10.27
2018-11-10T03:34:04.317Z,9.40
2018-11-10T03:35:08.543Z,13.23
2018-11-10T03:36:11.939Z,10.13
2018-11-10T03:37:15.375Z,14.90
2018-11-10T03:38:18.793Z,14.13
2018-11-10T03:39:22.266Z,10.07
2018-11-10T03:40:25.705Z,10.13
2018-11-10T03:41:29.207Z,8.97
2018-11-10T03:42:32.606Z,9.80
2018-11-10T03:43:36.083Z,8.33
2018-11-10T03:44:39.610Z,11.03
2018-11-10T03:45:43.039Z,11.23
2018-11-10T03:46:46.450Z,17.30
2018-11-10T03:47:49.926Z,11.97
2018-11-10T03:48:53.398Z,12.23
2018-11-10T03:49:56.803Z,12.23
2018-11-10T03:51:00.216Z,14.53
2018-11-10T03:52:03.605Z,9.20
2018-11-10T03:53:07.121Z,12.60
2018-11-10T03:54:10.526Z,10.77
2018-11-10T03:55:13.979Z,10.20
2018-11-10T03:56:17.379Z,8.90
2018-11-10T03:57:20.787Z,6.67
2018-11-10T03:58:24.191Z,11.13
2018-11-10T03:59:27.598Z,7.87
2018-11-10T04:00:31.056Z,10.57
2018-11-10T04:01:34.478Z,8.20
2018-11-10T04:02:38.033Z,7.70
2018-11-10T04:03:41.503Z,8.07
2018-11-10T04:04:45.083Z,11.30
2018-11-10T04:05:48.496Z,10.33
2018-11-10T04:06:51.894Z,9.53
2018-11-10T04:07:55.440Z,8.20
2018-11-10T04:08:58.913Z,9.87
2018-11-10T04:10:02.340Z,8.90
2018-11-10T04:11:06.027Z,12.83
2018-11-10T04:12:09.436Z,8.00
2018-11-10T04:13:12.861Z,13.27
2018-11-10T04:14:16.315Z,12.23
2018-11-10T04:15:19.881Z,10.03
2018-11-10T04:16:23.345Z,7.20
2018-11-10T04:17:26.798Z,8.93
2018-11-10T04:18:30.189Z,8.17
2018-11-10T04:19:33.602Z,9.37
2018-11-10T04:20:37.080Z,7.17
2018-11-10T04:21:40.525Z,6.60
2018-11-10T04:22:43.911Z,11.77
2018-11-10T04:23:47.330Z,10.67
2018-11-10T04:24:50.753Z,8.33
2018-11-10T04:25:54.303Z,7.03
2018-11-10T04:26:57.730Z,6.60
2018-11-10T04:28:01.210Z,9.43
2018-11-10T04:29:04.859Z,8.50
2018-11-10T04:30:09.557Z,8.30
2018-11-10T04:31:12.963Z,8.53
2018-11-10T04:32:16.409Z,11.00
2018-11-10T04:33:19.877Z,10.70
2018-11-10T04:34:23.275Z,6.87
2018-11-10T04:35:26.655Z,7.73
2018-11-10T04:36:30.049Z,8.03
2018-11-10T04:37:33.596Z,6.90
2018-11-10T04:38:36.977Z,6.80
2018-11-10T04:39:40.425Z,8.37
2018-11-10T04:40:43.843Z,10.10
2018-11-10T04:41:47.259Z,6.87
2018-11-10T04:42:50.727Z,7.67
2018-11-10T04:43:54.113Z,9.80
2018-11-10T04:44:57.600Z,13.70
2018-11-10T04:46:01.000Z,10.20
2018-11-10T04:47:04.798Z,9.07
2018-11-10T04:48:08.219Z,9.00
2018-11-10T04:49:11.711Z,9.50
2018-11-10T04:50:15.121Z,7.50
2018-11-10T04:51:18.560Z,5.77
2018-11-10T04:52:22.044Z,6.43
2018-11-10T04:53:25.421Z,9.93
2018-11-10T04:54:28.828Z,6.20
2018-11-10T04:55:32.256Z,6.70
2018-11-10T04:56:35.663Z,6.93
2018-11-10T04:57:39.537Z,9.33
2018-11-10T04:58:43.102Z,5.70
2018-11-10T04:59:46.660Z,5.90
2018-11-10T05:00:50.096Z,6.80
2018-11-10T05:01:53.484Z,10.77
2018-11-10T05:02:57.090Z,6.80
2018-11-10T05:04:00.515Z,6.67
2018-11-10T05:05:03.910Z,7.70
2018-11-10T05:06:07.610Z,8.87
2018-11-10T05:07:11.067Z,8.27
2018-11-10T05:08:14.470Z,6.93
2018-11-10T05:09:17.882Z,8.60
2018-11-10T05:10:21.280Z,7.23
2018-11-10T05:11:24.687Z,5.80
2018-11-10T05:12:28.061Z,5.60
2018-11-10T05:13:31.520Z,8.60
2018-11-10T05:14:35.000Z,6.10
2018-11-10T05:15:38.435Z,7.40
2018-11-10T05:16:41.873Z,11.93
2018-11-10T05:17:45.292Z,5.83
2018-11-10T05:18:48.685Z,6.83
2018-11-10T05:19:52.116Z,8.00
2018-11-10T05:20:55.755Z,5.97
2018-11-10T05:21:59.195Z,8.10
2018-11-10T05:23:02.595Z,5.93
2018-11-10T05:24:06.287Z,6.50
2018-11-10T05:25:10.520Z,6.23
2018-11-10T05:26:14.084Z,7.33
2018-11-10T05:27:17.516Z,9.10
2018-11-10T05:28:20.924Z,7.10
2018-11-10T05:29:24.360Z,8.77
2018-11-10T05:30:27.816Z,5.87
2018-11-10T05:31:31.227Z,5.30
2018-11-10T05:32:34.723Z,6.33
2018-11-10T05:33:38.137Z,7.17
2018-11-10T05:34:41.567Z,9.20
2018-11-10T05:35:45.009Z,7.30
2018-11-10T05:36:48.583Z,5.27
2018-11-10T05:37:52.043Z,6.60
2018-11-10T05:38:55.456Z,8.10
2018-11-10T05:39:58.893Z,5.63
2018-11-10T05:41:02.446Z,13.30
2018-11-10T05:42:05.846Z,8.57
2018-11-10T05:43:09.240Z,5.57
2018-11-10T05:44:12.616Z,5.90
2018-11-10T05:45:16.035Z,5.73
2018-11-10T05:46:19.801Z,11.40
2018-11-10T05:47:23.232Z,3.93
2018-11-10T05:48:26.905Z,7.53
2018-11-10T05:49:30.302Z,6.90
2018-11-10T05:50:33.701Z,11.07
2018-11-10T05:51:37.134Z,5.33
2018-11-10T05:52:40.639Z,8.37
2018-11-10T05:53:44.049Z,9.03
2018-11-10T05:54:47.648Z,5.10
2018-11-10T05:55:51.026Z,6.27
2018-11-10T05:56:54.457Z,5.73
2018-11-10T05:57:57.851Z,5.10
2018-11-10T05:59:01.271Z,10.50
2018-11-10T06:00:06.912Z,5.20
2018-11-10T06:01:10.314Z,6.57
2018-11-10T06:02:13.673Z,7.83
2018-11-10T06:03:17.138Z,6.60
2018-11-10T06:04:20.507Z,5.10
2018-11-10T06:05:24.126Z,5.23
2018-11-10T06:06:27.704Z,6.87
2018-11-10T06:07:31.092Z,6.33
2018-11-10T06:08:34.516Z,7.17
2018-11-10T06:09:38.078Z,5.30
2018-11-10T06:10:41.420Z,4.57
2018-11-10T06:11:44.872Z,4.83
2018-11-10T06:12:48.260Z,8.77
2018-11-10T06:13:51.636Z,5.03
2018-11-10T06:14:55.047Z,4.37
2018-11-10T06:15:58.497Z,5.17
2018-11-10T06:17:01.913Z,8.50
2018-11-10T06:18:05.383Z,6.93
2018-11-10T06:19:08.788Z,7.33
2018-11-10T06:20:13.162Z,5.50
2018-11-10T06:21:16.597Z,7.03
2018-11-10T06:22:20.055Z,7.50
2018-11-10T06:23:23.493Z,5.23
2018-11-10T06:24:27.139Z,5.70
2018-11-10T06:25:30.568Z,5.23
2018-11-10T06:26:34.110Z,4.60
2018-11-10T06:27:37.693Z,6.90
2018-11-10T06:28:41.346Z,18.37
2018-11-10T06:29:44.888Z,16.27
2018-11-10T06:30:48.357Z,4.97
2018-11-10T06:31:51.874Z,4.03
2018-11-10T06:32:55.275Z,7.57
2018-11-10T06:33:58.670Z,11.27
2018-11-10T06:35:02.121Z,9.20
2018-11-10T06:36:06.488Z,10.23
2018-11-10T06:37:09.921Z,8.10
2018-11-10T06:38:13.446Z,11.83
2018-11-10T06:39:17.016Z,9.80
2018-11-10T06:40:20.426Z,10.03
2018-11-10T06:41:23.911Z,6.43
2018-11-10T06:42:27.607Z,5.00
2018-11-10T06:43:31.068Z,5.10
2018-11-10T06:44:34.531Z,7.50
2018-11-10T06:45:38.028Z,7.83
2018-11-10T06:46:41.993Z,9.40
2018-11-10T06:47:45.376Z,5.47
2018-11-10T06:48:48.783Z,7.60
2018-11-10T06:49:52.170Z,5.97
2018-11-10T06:50:55.577Z,6.00
2018-11-10T06:51:58.979Z,4.40
2018-11-10T06:53:02.414Z,6.63
2018-11-10T06:54:06.088Z,6.77
2018-11-10T06:55:10.772Z,6.50
2018-11-10T06:56:14.171Z,7.37
2018-11-10T06:57:17.557Z,4.03
2018-11-10T06:58:21.126Z,4.77
2018-11-10T06:59:24.668Z,5.77
2018-11-10T07:00:28.219Z,7.47
2018-11-10T07:01:31.973Z,4.83
2018-11-10T07:02:35.409Z,7.10
2018-11-10T07:03:38.865Z,6.17
2018-11-10T07:04:42.472Z,14.80
2018-11-10T07:05:45.891Z,8.37
2018-11-10T07:06:49.513Z,5.40
2018-11-10T07:07:52.931Z,5.80
2018-11-10T07:08:56.357Z,10.33
2018-11-10T07:09:59.877Z,17.20
2018-11-10T07:11:03.286Z,14.63
2018-11-10T07:12:06.719Z,7.30
2018-11-10T07:13:10.213Z,8.50
2018-11-10T07:14:13.640Z,6.67
2018-11-10T07:15:17.046Z,7.23
2018-11-10T07:16:20.478Z,5.03
2018-11-10T07:17:23.961Z,6.57
2018-11-10T07:18:27.357Z,10.40
2018-11-10T07:19:30.825Z,8.30
2018-11-10T07:20:34.289Z,4.00
2018-11-10T07:21:37.690Z,9.43
2018-11-10T07:22:41.101Z,6.67
2018-11-10T07:23:44.547Z,6.37
2018-11-10T07:24:48.040Z,4.97
2018-11-10T07:25:51.453Z,5.53
2018-11-10T07:26:54.894Z,8.57
2018-11-10T07:27:58.254Z,7.20
2018-11-10T07:29:01.682Z,7.67
2018-11-10T07:30:06.791Z,5.17
2018-11-10T07:31:10.194Z,6.10
2018-11-10T07:32:13.596Z,6.13
2018-11-10T07:33:16.975Z,13.47
2018-11-10T07:34:20.400Z,5.00
2018-11-10T07:35:23.890Z,4.70
2018-11-10T07:36:27.489Z,5.37
2018-11-10T07:37:31.090Z,9.23
2018-11-10T07:38:34.454Z,6.50
2018-11-10T07:39:37.885Z,5.20
2018-11-10T07:40:41.685Z,6.73
2018-11-10T07:41:45.076Z,6.20
2018-11-10T07:42:48.510Z,5.97
2018-11-10T07:43:51.941Z,5.40
2018-11-10T07:44:55.399Z,4.20
2018-11-10T07:45:58.792Z,5.67
2018-11-10T07:47:02.214Z,6.53
2018-11-10T07:48:07.000Z,5.07
2018-11-10T07:49:10.487Z,6.70
2018-11-10T07:50:13.960Z,5.60
2018-11-10T07:51:17.664Z,4.50
2018-11-10T07:52:21.271Z,6.40
2018-11-10T07:53:25.015Z,4.20
2018-11-10T07:54:28.873Z,6.07
2018-11-10T07:55:32.502Z,6.23
2018-11-10T07:56:36.523Z,3.70
2018-11-10T07:57:41.786Z,6.33
2018-11-10T07:58:46.220Z,5.43
2018-11-10T07:59:49.747Z,5.27
2018-11-10T08:00:53.277Z,7.40
2018-11-10T08:01:57.011Z,4.40
2018-11-10T08:03:00.614Z,8.50
2018-11-10T08:04:04.264Z,5.90
2018-11-10T08:05:09.524Z,4.60
2018-11-10T08:06:14.040Z,5.30
2018-11-10T08:07:17.720Z,5.90
2018-11-10T08:08:21.389Z,3.83
2018-11-10T08:09:25.731Z,4.13
2018-11-10T08:10:29.732Z,7.53
2018-11-10T08:11:33.354Z,4.93
2018-11-10T08:12:37.817Z,4.93
2018-11-10T08:13:41.567Z,5.40
2018-11-10T08:14:45.067Z,3.93
2018-11-10T08:15:48.431Z,4.53
2018-11-10T08:16:51.871Z,5.87
2018-11-10T08:17:55.277Z,5.17
2018-11-10T08:18:58.678Z,5.13
2018-11-10T08:20:02.072Z,14.97
2018-11-10T08:21:05.896Z,5.70
2018-11-10T08:22:09.328Z,5.00
2018-11-10T08:23:12.749Z,3.43
2018-11-10T08:24:16.125Z,4.87
2018-11-10T08:25:19.519Z,5.80
2018-11-10T08:26:22.976Z,5.40
2018-11-10T08:27:26.397Z,5.07
2018-11-10T08:28:29.829Z,4.87
2018-11-10T08:29:33.259Z,4.43
2018-11-10T08:30:36.668Z,5.63
2018-11-10T08:31:40.176Z,8.07
2018-11-10T08:32:43.970Z,4.87
2018-11-10T08:33:47.372Z,5.30
2018-11-10T08:34:50.864Z,6.10
2018-11-10T08:35:54.264Z,11.27
2018-11-10T08:36:57.876Z,5.90
2018-11-10T08:38:01.293Z,6.70
2018-11-10T08:39:06.467Z,7.60
2018-11-10T08:40:12.439Z,9.83
2018-11-10T08:41:15.836Z,8.23
2018-11-10T08:42:19.269Z,8.20
2018-11-10T08:43:22.735Z,9.57
2018-11-10T08:44:26.237Z,12.80
2018-11-10T08:45:29.841Z,9.20
2018-11-10T08:46:33.360Z,7.00
2018-11-10T08:47:36.810Z,10.13
2018-11-10T08:48:40.402Z,8.23
2018-11-10T08:49:43.856Z,8.50
2018-11-10T08:50:47.262Z,8.30
2018-11-10T08:51:50.831Z,14.70
2018-11-10T08:52:54.216Z,11.67
2018-11-10T08:53:57.690Z,8.47
2018-11-10T08:55:01.078Z,7.80
2018-11-10T08:56:04.540Z,9.20
2018-11-10T08:57:08.026Z,12.50
2018-11-10T08:58:11.447Z,10.47
2018-11-10T08:59:14.935Z,13.87
2018-11-10T09:00:18.333Z,20.77
2018-11-10T09:01:21.745Z,8.87
2018-11-10T09:02:25.209Z,10.50
2018-11-10T09:03:28.597Z,8.30
2018-11-10T09:04:32.071Z,11.63
2018-11-10T09:05:35.455Z,12.03
2018-11-10T09:06:38.880Z,8.13
2018-11-10T09:07:42.657Z,10.20
2018-11-10T09:08:46.068Z,14.13
2018-11-10T09:09:49.665Z,32.43
2018-11-10T09:10:53.080Z,11.37
2018-11-10T09:11:56.456Z,11.93
2018-11-10T09:12:59.853Z,9.03
2018-11-10T09:14:03.382Z,10.30
2018-11-10T09:15:08.836Z,14.63
2018-11-10T09:16:12.230Z,9.80
2018-11-10T09:17:15.642Z,10.90
2018-11-10T09:18:19.082Z,10.33
2018-11-10T09:19:22.518Z,12.00
2018-11-10T09:20:25.928Z,16.43
2018-11-10T09:21:29.671Z,19.07
2018-11-10T09:22:32.994Z,19.73
2018-11-10T09:23:36.486Z,13.97
2018-11-10T09:24:39.915Z,13.00
2018-11-10T09:25:43.328Z,20.63
2018-11-10T09:26:46.698Z,7.23
2018-11-10T09:27:50.225Z,14.67
2018-11-10T09:28:53.641Z,10.13
2018-11-10T09:29:57.042Z,7.43
2018-11-10T09:31:00.563Z,13.50
2018-11-10T09:32:05.187Z,22.37
2018-11-10T09:33:09.475Z,18.53
2018-11-10T09:34:13.986Z,16.63
2018-11-10T09:35:18.734Z,17.70
2018-11-10T09:36:23.939Z,8.73
2018-11-10T09:37:27.369Z,15.97
2018-11-10T09:38:30.758Z,10.10
2018-11-10T09:39:34.698Z,9.00
2018-11-10T09:40:38.259Z,31.37
2018-11-10T09:41:42.553Z,20.63
2018-11-10T09:42:46.954Z,10.30
2018-11-10T09:43:50.316Z,9.20
2018-11-10T09:44:54.947Z,16.73
2018-11-10T09:45:58.526Z,13.60
2018-11-10T09:47:01.965Z,7.90
2018-11-10T09:48:05.810Z,5.20
2018-11-10T09:49:10.132Z,12.20
2018-11-10T09:50:17.330Z,7.10
2018-11-10T09:51:21.147Z,8.63
2018-11-10T09:52:24.612Z,13.50
2018-11-10T09:53:28.055Z,10.63
2018-11-10T09:54:31.464Z,6.30
2018-11-10T09:55:33.852Z,7.13
2018-11-10T09:56:37.312Z,11.53
2018-11-10T09:57:40.765Z,5.53
2018-11-10T09:58:44.254Z,7.07
2018-11-10T09:59:47.656Z,9.10
2018-11-10T10:00:51.211Z,6.87
2018-11-10T10:01:54.757Z,8.90
2018-11-10T10:02:58.089Z,7.33
2018-11-10T10:04:01.501Z,10.53
2018-11-10T10:05:05.902Z,9.13
2018-11-10T10:06:09.492Z,11.20
2018-11-10T10:07:12.939Z,10.53
2018-11-10T10:08:16.354Z,7.77
2018-11-10T10:09:19.829Z,7.03
2018-11-10T10:10:23.271Z,11.27
2018-11-10T10:11:26.720Z,8.60
2018-11-10T10:12:30.102Z,8.07
2018-11-10T10:13:33.500Z,5.37
2018-11-10T10:14:36.977Z,13.90
2018-11-10T10:15:40.429Z,7.43
2018-11-10T10:16:43.920Z,5.80
2018-11-10T10:17:47.408Z,7.80
2018-11-10T10:18:50.810Z,7.33
2018-11-10T10:19:54.200Z,6.20
2018-11-10T10:20:57.615Z,11.70
2018-11-10T10:22:01.068Z,6.77
2018-11-10T10:23:04.824Z,8.30
2018-11-10T10:24:08.786Z,8.23
2018-11-10T10:25:13.302Z,6.70
2018-11-10T10:26:16.751Z,6.53
2018-11-10T10:27:20.180Z,7.93
2018-11-10T10:28:23.691Z,9.07
2018-11-10T10:29:27.102Z,5.73
2018-11-10T10:30:30.523Z,6.80
2018-11-10T10:31:33.917Z,9.27
2018-11-10T10:32:37.375Z,11.57
2018-11-10T10:33:40.942Z,9.23
2018-11-10T10:34:44.542Z,7.77
2018-11-10T10:35:47.728Z,7.23
2018-11-10T10:36:51.160Z,5.00
2018-11-10T10:37:54.890Z,7.87
2018-11-10T10:38:58.321Z,6.63
2018-11-10T10:40:01.742Z,6.83
2018-11-10T10:41:05.672Z,6.80
2018-11-10T10:42:09.123Z,7.73
2018-11-10T10:43:12.558Z,7.67
2018-11-10T10:44:15.991Z,7.57
2018-11-10T10:45:21.751Z,7.50
2018-11-10T10:46:25.192Z,6.30
2018-11-10T10:47:28.652Z,7.23
2018-11-10T10:48:32.103Z,5.70
2018-11-10T10:49:35.497Z,12.03
2018-11-10T10:50:38.892Z,9.60
2018-11-10T10:51:42.410Z,9.10
2018-11-10T10:52:45.791Z,7.10
2018-11-10T10:53:49.224Z,6.20
2018-11-10T10:54:52.659Z,5.70
2018-11-10T10:55:56.215Z,6.20
2018-11-10T10:56:59.693Z,7.23
2018-11-10T10:58:03.118Z,11.50
2018-11-10T10:59:06.822Z,8.83
2018-11-10T11:00:17.049Z,6.10
2018-11-10T11:01:25.874Z,15.30
2018-11-10T11:02:34.692Z,16.87
2018-11-10T11:03:43.456Z,10.87
2018-11-10T11:04:52.269Z,7.70
2018-11-10T11:05:59.321Z,13.33
2018-11-10T11:07:02.765Z,10.10
2018-11-10T11:08:06.596Z,9.30
2018-11-10T11:09:10.125Z,31.47
2018-11-10T11:10:13.462Z,8.20
2018-11-10T11:11:16.921Z,8.47
2018-11-10T11:12:20.591Z,6.83
2018-11-10T11:13:24.051Z,5.70
2018-11-10T11:14:27.460Z,7.53
2018-11-10T11:15:31.222Z,11.00
2018-11-10T11:16:34.680Z,6.20
2018-11-10T11:17:38.112Z,5.50
2018-11-10T11:18:41.549Z,11.13
2018-11-10T11:19:44.954Z,12.93
2018-11-10T11:20:48.427Z,9.43
2018-11-10T11:21:51.918Z,10.50
2018-11-10T11:22:55.379Z,14.80
2018-11-10T11:23:58.801Z,7.47
2018-11-10T11:25:02.269Z,11.10
2018-11-10T11:26:06.635Z,18.23
2018-11-10T11:27:10.093Z,16.37
2018-11-10T11:28:13.504Z,13.93
2018-11-10T11:29:16.913Z,9.07
2018-11-10T11:30:20.356Z,17.20
2018-11-10T11:31:23.800Z,10.83
2018-11-10T11:32:27.283Z,8.03
2018-11-10T11:33:30.710Z,8.90
2018-11-10T11:34:34.119Z,8.33
2018-11-10T11:35:37.620Z,10.30
2018-11-10T11:36:41.026Z,11.63
2018-11-10T11:37:44.487Z,8.53
2018-11-10T11:38:47.912Z,6.27
2018-11-10T11:39:51.376Z,11.90
2018-11-10T11:40:54.872Z,8.77
2018-11-10T11:41:58.276Z,7.30
2018-11-10T11:43:01.719Z,12.73
2018-11-10T11:44:05.932Z,11.80
2018-11-10T11:45:10.606Z,7.27
2018-11-10T11:46:14.043Z,15.60
2018-11-10T11:47:17.528Z,7.80
2018-11-10T11:48:21.184Z,11.00
2018-11-10T11:49:24.578Z,4.37
2018-11-10T11:50:28.014Z,12.33
2018-11-10T11:51:31.602Z,7.83
2018-11-10T11:52:35.219Z,7.80
2018-11-10T11:53:38.733Z,6.53
2018-11-10T11:54:42.184Z,7.37
2018-11-10T11:55:45.590Z,5.80
2018-11-10T11:56:48.972Z,8.83
2018-11-10T11:57:52.510Z,5.10
2018-11-10T11:58:55.916Z,5.33
2018-11-10T11:59:59.392Z,7.63
2018-11-10T12:01:02.829Z,5.30
2018-11-10T12:02:06.309Z,7.40
2018-11-10T12:03:09.743Z,6.27
2018-11-10T12:04:13.191Z,6.47
2018-11-10T12:05:17.773Z,7.10
2018-11-10T12:06:21.226Z,7.07
2018-11-10T12:07:24.643Z,4.47
2018-11-10T12:08:28.091Z,5.43
2018-11-10T12:09:31.550Z,5.77
2018-11-10T12:10:34.979Z,8.80
2018-11-10T12:11:38.503Z,8.60
2018-11-10T12:12:42.139Z,4.47
2018-11-10T12:13:45.615Z,6.50
2018-11-10T12:14:49.159Z,6.40
2018-11-10T12:15:52.584Z,8.20
2018-11-10T12:16:56.086Z,5.43
2018-11-10T12:17:59.503Z,5.67
2018-11-10T12:19:03.021Z,4.83
2018-11-10T12:20:07.826Z,5.57
2018-11-10T12:21:11.330Z,6.07
2018-11-10T12:22:14.729Z,5.50
2018-11-10T12:23:18.121Z,4.67
2018-11-10T12:24:21.571Z,4.00
2018-11-10T12:25:25.045Z,4.73
2018-11-10T12:26:28.474Z,8.03
2018-11-10T12:27:31.985Z,4.93
2018-11-10T12:28:35.459Z,4.17
2018-11-10T12:29:38.999Z,6.00
2018-11-10T12:30:42.490Z,5.10
2018-11-10T12:31:45.992Z,4.43
2018-11-10T12:32:49.449Z,4.60
2018-11-10T12:33:52.849Z,3.47
2018-11-10T12:34:56.305Z,8.00
2018-11-10T12:35:59.819Z,5.27
2018-11-10T12:37:03.249Z,6.13
2018-11-10T12:38:06.726Z,5.80
2018-11-10T12:39:10.560Z,6.10
2018-11-10T12:40:14.670Z,5.33
2018-11-10T12:41:18.092Z,4.10
2018-11-10T12:42:21.639Z,3.30
2018-11-10T12:43:25.322Z,5.30
2018-11-10T12:44:28.754Z,5.70
2018-11-10T12:45:32.167Z,4.87
2018-11-10T12:46:35.592Z,5.67
2018-11-10T12:47:39.887Z,4.70
2018-11-10T12:48:43.283Z,6.30
2018-11-10T12:49:46.689Z,4.50
2018-11-10T12:50:50.092Z,5.00
2018-11-10T12:51:53.540Z,5.00
2018-11-10T12:52:56.987Z,22.23
2018-11-10T12:54:00.372Z,9.63
2018-11-10T12:55:03.922Z,5.13
2018-11-10T12:56:08.253Z,3.83
2018-11-10T12:57:11.702Z,4.73
2018-11-10T12:58:15.221Z,3.77
2018-11-10T12:59:18.649Z,5.43
2018-11-10T13:00:22.117Z,6.00
2018-11-10T13:01:25.596Z,3.30
2018-11-10T13:02:29.087Z,5.07
2018-11-10T13:03:32.540Z,5.33
2018-11-10T13:04:35.920Z,3.90
2018-11-10T13:05:39.393Z,7.23
2018-11-10T13:06:42.907Z,4.90
2018-11-10T13:07:47.348Z,4.40
2018-11-10T13:08:50.858Z,12.10
2018-11-10T13:09:54.256Z,4.20
2018-11-10T13:10:57.719Z,3.70
2018-11-10T13:12:01.420Z,3.63
2018-11-10T13:13:05.129Z,7.30
2018-11-10T13:14:10.177Z,5.40
2018-11-10T13:15:13.590Z,3.93
2018-11-10T13:16:17.043Z,4.60
2018-11-10T13:17:20.506Z,5.33
2018-11-10T13:18:23.951Z,4.50
2018-11-10T13:19:27.492Z,4.03
2018-11-10T13:20:30.916Z,7.83
2018-11-10T13:21:34.296Z,3.87
2018-11-10T13:22:37.765Z,4.10
2018-11-10T13:23:41.185Z,4.33
2018-11-10T13:24:44.680Z,4.27
2018-11-10T13:25:48.161Z,4.00
2018-11-10T13:26:51.613Z,3.47
2018-11-10T13:27:55.094Z,3.80
2018-11-10T13:28:58.889Z,3.40
2018-11-10T13:30:02.295Z,6.57
2018-11-10T13:31:05.914Z,3.40
2018-11-10T13:32:09.260Z,3.80
2018-11-10T13:33:12.672Z,4.37
2018-11-10T13:34:16.139Z,4.60
2018-11-10T13:35:19.608Z,3.43
2018-11-10T13:36:23.010Z,4.50
2018-11-10T13:37:26.430Z,5.13
2018-11-10T13:38:29.807Z,4.63
2018-11-10T13:39:33.208Z,8.87
2018-11-10T13:40:36.629Z,4.30
2018-11-10T13:41:40.808Z,4.60
2018-11-10T13:42:44.220Z,5.63
2018-11-10T13:43:47.879Z,5.60
2018-11-10T13:44:51.299Z,6.77
2018-11-10T13:45:54.894Z,4.17
2018-11-10T13:46:58.321Z,5.23
2018-11-10T13:48:01.785Z,7.43
2018-11-10T13:49:05.227Z,4.40
2018-11-10T13:50:10.941Z,5.77
2018-11-10T13:51:14.515Z,3.50
2018-11-10T13:52:18.199Z,6.03
2018-11-10T13:53:21.208Z,5.43
2018-11-10T13:54:24.623Z,5.40
2018-11-10T13:55:28.056Z,5.57
2018-11-10T13:56:31.516Z,4.27
2018-11-10T13:57:34.930Z,3.40
2018-11-10T13:58:38.380Z,8.07
2018-11-10T13:59:41.955Z,5.10
2018-11-10T14:00:45.378Z,6.43
2018-11-10T14:01:48.777Z,5.20